sensor_id;sensor_type;location;lat;lon;timestamp;P1;durP1;ratioP1;P2;durP2;ratioP2
58244;SDS011;44550;43.864;25.986;2023-07-20T00:03:40;58.97;;;9.27;;
58244;SDS011;44550;43.864;25.986;2023-07-20T00:08:33;47.53;;;7.50;;
58244;SDS011;44550;43.864;25.986;2023-07-20T00:13:48;29.85;;;5.43;;
58244;SDS011;44550;43.864;25.986;2023-07-20T00:18:50;13.77;;;5.72;;
58244;SDS011;44550;43.864;25.986;2023-07-20T00:24:08;23.70;;;6.63;;
58244;SDS011;44550;43.864;25.986;2023-07-20T00:28:54;18.52;;;6.05;;
58244;SDS011;44550;43.864;25.986;2023-07-20T00:33:41;14.13;;;6.20;;
58244;SDS011;44550;43.864;25.986;2023-07-20T00:38:21;16.38;;;8.75;;
58244;SDS011;44550;43.864;25.986;2023-07-20T00:42:49;14.30;;;7.32;;
58244;SDS011;44550;43.864;25.986;2023-07-20T00:47:57;20.98;;;7.95;;
58244;SDS011;44550;43.864;25.986;2023-07-20T00:52:02;14.93;;;6.57;;
58244;SDS011;44550;43.864;25.986;2023-07-20T00:56:16;13.30;;;6.40;;
58244;SDS011;44550;43.864;25.986;2023-07-20T01:05:45;12.15;;;5.68;;
58244;SDS011;44550;43.864;25.986;2023-07-20T01:11:16;12.68;;;5.10;;
58244;SDS011;44550;43.864;25.986;2023-07-20T01:15:06;12.03;;;5.43;;
58244;SDS011;44550;43.864;25.986;2023-07-20T01:19:08;11.25;;;4.63;;
58244;SDS011;44550;43.864;25.986;2023-07-20T01:23:50;13.25;;;4.57;;
58244;SDS011;44550;43.864;25.986;2023-07-20T01:28:52;15.38;;;4.38;;
58244;SDS011;44550;43.864;25.986;2023-07-20T01:38:26;10.35;;;5.70;;
58244;SDS011;44550;43.864;25.986;2023-07-20T01:47:36;24.73;;;5.60;;
58244;SDS011;44550;43.864;25.986;2023-07-20T01:52:29;20.58;;;5.85;;
58244;SDS011;44550;43.864;25.986;2023-07-20T02:01:16;8.03;;;4.93;;
58244;SDS011;44550;43.864;25.986;2023-07-20T02:06:11;11.38;;;4.30;;
58244;SDS011;44550;43.864;25.986;2023-07-20T02:10:51;13.07;;;4.50;;
58244;SDS011;44550;43.864;25.986;2023-07-20T02:14:58;15.35;;;5.22;;
58244;SDS011;44550;43.864;25.986;2023-07-20T02:19:29;12.98;;;4.72;;
58244;SDS011;44550;43.864;25.986;2023-07-20T02:23:38;8.85;;;4.07;;
58244;SDS011;44550;43.864;25.986;2023-07-20T02:28:03;9.95;;;3.45;;
58244;SDS011;44550;43.864;25.986;2023-07-20T02:32:16;12.05;;;4.03;;
58244;SDS011;44550;43.864;25.986;2023-07-20T02:36:26;9.27;;;3.70;;
58244;SDS011;44550;43.864;25.986;2023-07-20T02:40:37;9.75;;;3.58;;
58244;SDS011;44550;43.864;25.986;2023-07-20T02:49:50;8.20;;;3.75;;
58244;SDS011;44550;43.864;25.986;2023-07-20T02:54:40;11.20;;;3.88;;
58244;SDS011;44550;43.864;25.986;2023-07-20T02:58:56;13.02;;;4.00;;
58244;SDS011;44550;43.864;25.986;2023-07-20T03:24:14;11.15;;;4.60;;
58244;SDS011;44550;43.864;25.986;2023-07-20T03:28:34;5.97;;;4.00;;
58244;SDS011;44550;43.864;25.986;2023-07-20T03:44:36;4.80;;;2.75;;
58244;SDS011;44550;43.864;25.986;2023-07-20T03:49:08;6.60;;;3.15;;
58244;SDS011;44550;43.864;25.986;2023-07-20T03:53:46;7.22;;;3.45;;
58244;SDS011;44550;43.864;25.986;2023-07-20T03:58:23;12.23;;;3.13;;
58244;SDS011;44550;43.864;25.986;2023-07-20T04:08:35;11.63;;;3.88;;
58244;SDS011;44550;43.864;25.986;2023-07-20T04:13:13;12.27;;;4.38;;
58244;SDS011;44550;43.864;25.986;2023-07-20T04:17:48;7.57;;;3.55;;
58244;SDS011;44550;43.864;25.986;2023-07-20T04:22:19;14.52;;;3.85;;
58244;SDS011;44550;43.864;25.986;2023-07-20T04:26:26;5.25;;;3.45;;
58244;SDS011;44550;43.864;25.986;2023-07-20T04:30:55;11.75;;;3.70;;
58244;SDS011;44550;43.864;25.986;2023-07-20T04:35:52;17.75;;;3.67;;
58244;SDS011;44550;43.864;25.986;2023-07-20T04:40:41;9.48;;;4.18;;
58244;SDS011;44550;43.864;25.986;2023-07-20T04:45:29;10.70;;;3.88;;
58244;SDS011;44550;43.864;25.986;2023-07-20T04:53:29;5.85;;;2.75;;
58244;SDS011;44550;43.864;25.986;2023-07-20T04:56:26;9.27;;;3.88;;
58244;SDS011;44550;43.864;25.986;2023-07-20T05:29:56;8.35;;;3.35;;
58244;SDS011;44550;43.864;25.986;2023-07-20T05:35:09;17.08;;;3.75;;
58244;SDS011;44550;43.864;25.986;2023-07-20T05:40:27;8.13;;;4.07;;
58244;SDS011;44550;43.864;25.986;2023-07-20T05:45:25;9.95;;;3.90;;
58244;SDS011;44550;43.864;25.986;2023-07-20T05:55:06;9.85;;;3.80;;
58244;SDS011;44550;43.864;25.986;2023-07-20T05:59:33;9.05;;;4.50;;
58244;SDS011;44550;43.864;25.986;2023-07-20T06:04:07;10.52;;;4.15;;
58244;SDS011;44550;43.864;25.986;2023-07-20T06:09:07;6.78;;;3.70;;
58244;SDS011;44550;43.864;25.986;2023-07-20T06:14:01;6.53;;;4.05;;
58244;SDS011;44550;43.864;25.986;2023-07-20T06:19:25;5.65;;;3.53;;
58244;SDS011;44550;43.864;25.986;2023-07-20T06:23:33;11.05;;;4.32;;
58244;SDS011;44550;43.864;25.986;2023-07-20T06:27:54;7.05;;;3.13;;
58244;SDS011;44550;43.864;25.986;2023-07-20T06:32:57;9.75;;;3.35;;
58244;SDS011;44550;43.864;25.986;2023-07-20T06:37:42;8.43;;;3.78;;
58244;SDS011;44550;43.864;25.986;2023-07-20T06:41:59;9.40;;;4.57;;
58244;SDS011;44550;43.864;25.986;2023-07-20T06:46:59;7.25;;;4.10;;
58244;SDS011;44550;43.864;25.986;2023-07-20T06:51:33;15.57;;;4.97;;
58244;SDS011;44550;43.864;25.986;2023-07-20T06:56:07;7.53;;;3.80;;
58244;SDS011;44550;43.864;25.986;2023-07-20T07:00:49;5.72;;;4.22;;
58244;SDS011;44550;43.864;25.986;2023-07-20T07:05:24;5.90;;;3.45;;
58244;SDS011;44550;43.864;25.986;2023-07-20T07:15:14;8.18;;;4.07;;
58244;SDS011;44550;43.864;25.986;2023-07-20T07:19:47;8.18;;;3.75;;
58244;SDS011;44550;43.864;25.986;2023-07-20T07:24:37;7.50;;;3.80;;
58244;SDS011;44550;43.864;25.986;2023-07-20T07:28:55;10.82;;;3.25;;
58244;SDS011;44550;43.864;25.986;2023-07-20T07:33:46;8.60;;;4.85;;
58244;SDS011;44550;43.864;25.986;2023-07-20T07:43:56;8.40;;;4.60;;
58244;SDS011;44550;43.864;25.986;2023-07-20T07:48:14;6.07;;;4.72;;
58244;SDS011;44550;43.864;25.986;2023-07-20T07:52:57;7.70;;;5.13;;
58244;SDS011;44550;43.864;25.986;2023-07-20T08:01:38;7.28;;;5.05;;
58244;SDS011;44550;43.864;25.986;2023-07-20T08:10:35;11.45;;;4.45;;
58244;SDS011;44550;43.864;25.986;2023-07-20T08:14:57;7.40;;;4.57;;
58244;SDS011;44550;43.864;25.986;2023-07-20T08:19:16;6.05;;;3.83;;
58244;SDS011;44550;43.864;25.986;2023-07-20T08:23:40;7.25;;;4.60;;
58244;SDS011;44550;43.864;25.986;2023-07-20T08:27:56;6.90;;;4.50;;
58244;SDS011;44550;43.864;25.986;2023-07-20T08:32:36;14.15;;;6.05;;
58244;SDS011;44550;43.864;25.986;2023-07-20T08:41:28;6.57;;;5.47;;
58244;SDS011;44550;43.864;25.986;2023-07-20T08:50:34;10.40;;;4.32;;
58244;SDS011;44550;43.864;25.986;2023-07-20T08:55:15;10.40;;;5.50;;
58244;SDS011;44550;43.864;25.986;2023-07-20T08:59:33;7.97;;;4.60;;
58244;SDS011;44550;43.864;25.986;2023-07-20T09:04:55;8.43;;;4.35;;
58244;SDS011;44550;43.864;25.986;2023-07-20T09:09:24;10.32;;;4.85;;
58244;SDS011;44550;43.864;25.986;2023-07-20T09:28:49;11.50;;;4.63;;
58244;SDS011;44550;43.864;25.986;2023-07-20T09:39:01;7.43;;;4.22;;
58244;SDS011;44550;43.864;25.986;2023-07-20T09:55:12;4.35;;;3.70;;
58244;SDS011;44550;43.864;25.986;2023-07-20T09:59:45;8.13;;;3.95;;
58244;SDS011;44550;43.864;25.986;2023-07-20T10:04:35;6.25;;;3.65;;
58244;SDS011;44550;43.864;25.986;2023-07-20T10:14:30;6.70;;;4.63;;
58244;SDS011;44550;43.864;25.986;2023-07-20T10:19:11;11.32;;;3.95;;
58244;SDS011;44550;43.864;25.986;2023-07-20T10:23:56;6.15;;;3.65;;
58244;SDS011;44550;43.864;25.986;2023-07-20T10:28:20;8.73;;;3.80;;
58244;SDS011;44550;43.864;25.986;2023-07-20T10:38:03;5.15;;;4.20;;
58244;SDS011;44550;43.864;25.986;2023-07-20T11:03:05;6.60;;;3.30;;
58244;SDS011;44550;43.864;25.986;2023-07-20T11:12:43;9.85;;;4.57;;
58244;SDS011;44550;43.864;25.986;2023-07-20T11:17:44;8.55;;;3.70;;
58244;SDS011;44550;43.864;25.986;2023-07-20T11:22:27;9.70;;;4.95;;
58244;SDS011;44550;43.864;25.986;2023-07-20T11:42:49;8.20;;;4.45;;
58244;SDS011;44550;43.864;25.986;2023-07-20T11:47:19;8.30;;;4.03;;
58244;SDS011;44550;43.864;25.986;2023-07-20T11:52:09;8.93;;;6.38;;
58244;SDS011;44550;43.864;25.986;2023-07-20T12:07:03;8.50;;;4.85;;
58244;SDS011;44550;43.864;25.986;2023-07-20T12:11:32;7.47;;;5.00;;
58244;SDS011;44550;43.864;25.986;2023-07-20T12:36:04;9.13;;;3.38;;
58244;SDS011;44550;43.864;25.986;2023-07-20T12:40:43;4.93;;;3.30;;
58244;SDS011;44550;43.864;25.986;2023-07-20T12:45:35;7.78;;;3.63;;
58244;SDS011;44550;43.864;25.986;2023-07-20T12:50:15;6.30;;;4.25;;
58244;SDS011;44550;43.864;25.986;2023-07-20T12:54:35;6.82;;;3.35;;
58244;SDS011;44550;43.864;25.986;2023-07-20T12:58:46;5.78;;;3.22;;
58244;SDS011;44550;43.864;25.986;2023-07-20T13:03:37;10.00;;;4.23;;
58244;SDS011;44550;43.864;25.986;2023-07-20T13:08:39;6.28;;;2.90;;
58244;SDS011;44550;43.864;25.986;2023-07-20T13:13:31;13.50;;;4.07;;
58244;SDS011;44550;43.864;25.986;2023-07-20T13:18:29;9.25;;;3.75;;
58244;SDS011;44550;43.864;25.986;2023-07-20T13:23:31;12.38;;;3.53;;
58244;SDS011;44550;43.864;25.986;2023-07-20T13:28:29;4.95;;;3.00;;
58244;SDS011;44550;43.864;25.986;2023-07-20T13:38:29;6.40;;;2.67;;
58244;SDS011;44550;43.864;25.986;2023-07-20T13:48:03;2.97;;;2.05;;
58244;SDS011;44550;43.864;25.986;2023-07-20T14:02:23;6.32;;;2.60;;
58244;SDS011;44550;43.864;25.986;2023-07-20T14:07:01;3.70;;;2.22;;
58244;SDS011;44550;43.864;25.986;2023-07-20T14:11:50;7.85;;;2.53;;
58244;SDS011;44550;43.864;25.986;2023-07-20T14:16:29;8.95;;;2.88;;
58244;SDS011;44550;43.864;25.986;2023-07-20T14:21:02;3.45;;;2.30;;
58244;SDS011;44550;43.864;25.986;2023-07-20T14:25:23;9.98;;;2.70;;
58244;SDS011;44550;43.864;25.986;2023-07-20T14:29:45;11.15;;;3.53;;
58244;SDS011;44550;43.864;25.986;2023-07-20T14:34:05;7.82;;;2.78;;
58244;SDS011;44550;43.864;25.986;2023-07-20T14:42:57;5.32;;;2.63;;
58244;SDS011;44550;43.864;25.986;2023-07-20T14:52:05;6.65;;;2.72;;
58244;SDS011;44550;43.864;25.986;2023-07-20T14:57:05;3.67;;;2.38;;
58244;SDS011;44550;43.864;25.986;2023-07-20T15:02:47;6.03;;;2.17;;
58244;SDS011;44550;43.864;25.986;2023-07-20T15:12:57;6.57;;;2.55;;
58244;SDS011;44550;43.864;25.986;2023-07-20T15:17:58;4.72;;;2.40;;
58244;SDS011;44550;43.864;25.986;2023-07-20T15:23:23;7.72;;;2.03;;
58244;SDS011;44550;43.864;25.986;2023-07-20T15:27:28;7.45;;;2.72;;
58244;SDS011;44550;43.864;25.986;2023-07-20T15:31:58;8.15;;;2.45;;
58244;SDS011;44550;43.864;25.986;2023-07-20T15:36:27;6.28;;;2.35;;
58244;SDS011;44550;43.864;25.986;2023-07-20T15:41:11;6.95;;;2.30;;
58244;SDS011;44550;43.864;25.986;2023-07-20T15:51:34;5.30;;;2.67;;
58244;SDS011;44550;43.864;25.986;2023-07-20T15:56:09;8.48;;;2.63;;
58244;SDS011;44550;43.864;25.986;2023-07-20T16:00:19;6.93;;;2.63;;
58244;SDS011;44550;43.864;25.986;2023-07-20T16:04:34;3.28;;;2.05;;
58244;SDS011;44550;43.864;25.986;2023-07-20T16:09:44;5.43;;;2.83;;
58244;SDS011;44550;43.864;25.986;2023-07-20T16:14:35;5.65;;;2.35;;
58244;SDS011;44550;43.864;25.986;2023-07-20T16:18:50;3.72;;;2.20;;
58244;SDS011;44550;43.864;25.986;2023-07-20T16:23:27;5.57;;;2.63;;
58244;SDS011;44550;43.864;25.986;2023-07-20T16:32:36;6.70;;;2.70;;
58244;SDS011;44550;43.864;25.986;2023-07-20T16:37:20;5.60;;;2.45;;
58244;SDS011;44550;43.864;25.986;2023-07-20T16:47:30;24.92;;;6.15;;
58244;SDS011;44550;43.864;25.986;2023-07-20T16:51:57;21.60;;;5.75;;
58244;SDS011;44550;43.864;25.986;2023-07-20T16:56:17;17.50;;;5.78;;
58244;SDS011;44550;43.864;25.986;2023-07-20T17:00:40;9.95;;;4.22;;
58244;SDS011;44550;43.864;25.986;2023-07-20T17:04:56;10.52;;;4.82;;
58244;SDS011;44550;43.864;25.986;2023-07-20T17:09:09;6.35;;;4.07;;
58244;SDS011;44550;43.864;25.986;2023-07-20T17:13:22;10.88;;;5.32;;
58244;SDS011;44550;43.864;25.986;2023-07-20T17:17:29;10.50;;;4.85;;
58244;SDS011;44550;43.864;25.986;2023-07-20T17:21:35;8.40;;;4.25;;
58244;SDS011;44550;43.864;25.986;2023-07-20T17:25:54;6.85;;;3.72;;
58244;SDS011;44550;43.864;25.986;2023-07-20T17:30:13;13.57;;;5.95;;
58244;SDS011;44550;43.864;25.986;2023-07-20T17:34:36;7.57;;;3.92;;
58244;SDS011;44550;43.864;25.986;2023-07-20T17:38:46;7.47;;;4.55;;
58244;SDS011;44550;43.864;25.986;2023-07-20T17:43:24;10.40;;;5.00;;
58244;SDS011;44550;43.864;25.986;2023-07-20T17:53:04;12.80;;;5.30;;
58244;SDS011;44550;43.864;25.986;2023-07-20T18:02:35;8.10;;;5.90;;
58244;SDS011;44550;43.864;25.986;2023-07-20T18:12:37;18.08;;;6.63;;
58244;SDS011;44550;43.864;25.986;2023-07-20T18:18:13;9.63;;;6.30;;
58244;SDS011;44550;43.864;25.986;2023-07-20T18:23:00;9.70;;;6.32;;
58244;SDS011;44550;43.864;25.986;2023-07-20T18:27:54;9.35;;;4.78;;
58244;SDS011;44550;43.864;25.986;2023-07-20T18:32:57;6.40;;;4.70;;
58244;SDS011;44550;43.864;25.986;2023-07-20T18:38:36;9.07;;;5.18;;
58244;SDS011;44550;43.864;25.986;2023-07-20T18:50:05;12.68;;;6.20;;
58244;SDS011;44550;43.864;25.986;2023-07-20T19:01:02;8.90;;;4.65;;
58244;SDS011;44550;43.864;25.986;2023-07-20T19:06:09;8.68;;;4.43;;
58244;SDS011;44550;43.864;25.986;2023-07-20T19:11:32;6.80;;;5.47;;
58244;SDS011;44550;43.864;25.986;2023-07-20T19:25:28;7.32;;;4.35;;
58244;SDS011;44550;43.864;25.986;2023-07-20T19:30:05;9.00;;;4.53;;
58244;SDS011;44550;43.864;25.986;2023-07-20T19:34:25;8.07;;;4.97;;
58244;SDS011;44550;43.864;25.986;2023-07-20T19:38:40;5.20;;;4.63;;
58244;SDS011;44550;43.864;25.986;2023-07-20T19:43:20;9.63;;;5.07;;
58244;SDS011;44550;43.864;25.986;2023-07-20T19:53:36;8.65;;;4.38;;
58244;SDS011;44550;43.864;25.986;2023-07-20T20:13:47;15.30;;;6.38;;
58244;SDS011;44550;43.864;25.986;2023-07-20T20:18:23;11.07;;;5.70;;
58244;SDS011;44550;43.864;25.986;2023-07-20T20:22:56;14.80;;;5.47;;
58244;SDS011;44550;43.864;25.986;2023-07-20T20:32:15;5.75;;;4.93;;
58244;SDS011;44550;43.864;25.986;2023-07-20T20:36:36;6.40;;;5.30;;
58244;SDS011;44550;43.864;25.986;2023-07-20T20:41:27;10.93;;;5.55;;
58244;SDS011;44550;43.864;25.986;2023-07-20T20:46:42;12.70;;;5.32;;
58244;SDS011;44550;43.864;25.986;2023-07-20T21:08:00;11.15;;;5.72;;
58244;SDS011;44550;43.864;25.986;2023-07-20T21:12:49;8.10;;;5.63;;
58244;SDS011;44550;43.864;25.986;2023-07-20T21:34:03;9.18;;;5.07;;
58244;SDS011;44550;43.864;25.986;2023-07-20T21:38:43;6.93;;;5.93;;
58244;SDS011;44550;43.864;25.986;2023-07-20T21:43:28;11.07;;;5.55;;
58244;SDS011;44550;43.864;25.986;2023-07-20T21:47:51;8.65;;;5.55;;
58244;SDS011;44550;43.864;25.986;2023-07-20T21:52:33;9.27;;;6.15;;
58244;SDS011;44550;43.864;25.986;2023-07-20T21:56:53;7.60;;;5.22;;
58244;SDS011;44550;43.864;25.986;2023-07-20T22:01:59;7.82;;;5.60;;
58244;SDS011;44550;43.864;25.986;2023-07-20T22:07:22;8.95;;;5.97;;
58244;SDS011;44550;43.864;25.986;2023-07-20T22:17:28;8.52;;;5.32;;
58244;SDS011;44550;43.864;25.986;2023-07-20T22:21:50;10.13;;;5.68;;
58244;SDS011;44550;43.864;25.986;2023-07-20T22:36:48;11.45;;;6.20;;
58244;SDS011;44550;43.864;25.986;2023-07-20T22:41:47;13.35;;;7.35;;
58244;SDS011;44550;43.864;25.986;2023-07-20T22:46:18;8.07;;;5.65;;
58244;SDS011;44550;43.864;25.986;2023-07-20T22:50:37;10.55;;;5.50;;
58244;SDS011;44550;43.864;25.986;2023-07-20T22:55:22;13.50;;;7.38;;
58244;SDS011;44550;43.864;25.986;2023-07-20T23:00:02;7.82;;;5.60;;
58244;SDS011;44550;43.864;25.986;2023-07-20T23:04:57;7.47;;;5.60;;
58244;SDS011;44550;43.864;25.986;2023-07-20T23:09:28;12.30;;;5.90;;
58244;SDS011;44550;43.864;25.986;2023-07-20T23:14:03;11.60;;;6.75;;
58244;SDS011;44550;43.864;25.986;2023-07-20T23:18:21;6.97;;;5.22;;
58244;SDS011;44550;43.864;25.986;2023-07-20T23:23:10;10.20;;;5.55;;
58244;SDS011;44550;43.864;25.986;2023-07-20T23:33:34;11.00;;;6.18;;
58244;SDS011;44550;43.864;25.986;2023-07-20T23:38:17;10.38;;;5.68;;
58244;SDS011;44550;43.864;25.986;2023-07-20T23:42:50;8.32;;;5.82;;
58244;SDS011;44550;43.864;25.986;2023-07-20T23:47:13;9.05;;;6.05;;
58244;SDS011;44550;43.864;25.986;2023-07-20T23:51:59;9.60;;;6.22;;
58244;SDS011;44550;43.864;25.986;2023-07-20T23:56:44;8.73;;;6.47;;
